createdAt,value
2022-08-17T00:00:34.869Z,21.20
2022-08-17T00:03:19.379Z,22.00
2022-08-17T00:05:51.759Z,20.40
2022-08-17T00:08:24.475Z,21.60
2022-08-17T00:10:53.830Z,20.20
2022-08-17T00:13:35.579Z,21.20
2022-08-17T00:16:12.043Z,21.60
2022-08-17T00:19:01.627Z,19.40
2022-08-17T00:21:44.680Z,19.10
2022-08-17T00:24:16.787Z,21.60
2022-08-17T00:26:45.551Z,20.20
2022-08-17T00:29:20.086Z,19.70
2022-08-17T00:31:49.304Z,19.80
2022-08-17T00:34:17.630Z,20.90
2022-08-17T00:36:45.501Z,20.50
2022-08-17T00:39:13.292Z,19.50
2022-08-17T00:41:42.467Z,18.70
2022-08-17T00:44:12.313Z,20.90
2022-08-17T00:46:42.285Z,20.10
2022-08-17T00:49:12.458Z,18.80
2022-08-17T00:51:55.408Z,18.60
2022-08-17T00:54:27.495Z,19.60
2022-08-17T00:57:04.496Z,21.00
2022-08-17T00:59:38.577Z,19.30
2022-08-17T01:02:09.646Z,19.80
2022-08-17T01:04:37.847Z,20.40
2022-08-17T01:07:06.025Z,20.20
2022-08-17T01:09:34.340Z,20.20
2022-08-17T01:12:02.030Z,20.90
2022-08-17T01:14:29.747Z,17.90
2022-08-17T01:16:57.785Z,17.80
2022-08-17T01:19:28.940Z,18.60
2022-08-17T01:22:08.850Z,18.10
2022-08-17T01:24:39.767Z,19.30
2022-08-17T01:27:10.449Z,18.20
2022-08-17T01:29:39.986Z,19.70
2022-08-17T01:32:08.509Z,18.90
2022-08-17T01:34:43.305Z,19.50
2022-08-17T01:37:19.704Z,19.10
2022-08-17T01:39:52.040Z,18.90
2022-08-17T01:42:47.029Z,18.80
2022-08-17T01:45:25.015Z,19.30
2022-08-17T01:47:53.802Z,18.80
2022-08-17T01:50:29.012Z,18.40
2022-08-17T01:53:00.782Z,19.10
2022-08-17T01:55:48.530Z,21.20
2022-08-17T01:58:16.587Z,18.20
2022-08-17T02:00:47.801Z,19.20
2022-08-17T02:03:29.401Z,19.80
2022-08-17T02:05:57.601Z,20.70
2022-08-17T02:08:39.060Z,20.50
2022-08-17T02:11:17.005Z,20.40
2022-08-17T02:13:46.191Z,19.00
2022-08-17T02:16:14.506Z,21.30
2022-08-17T02:18:42.466Z,19.50
2022-08-17T02:21:10.278Z,19.40
2022-08-17T02:23:44.174Z,19.60
2022-08-17T02:26:11.969Z,19.00
2022-08-17T02:28:53.686Z,21.10
2022-08-17T02:31:21.431Z,18.70
2022-08-17T02:33:56.896Z,20.10
2022-08-17T02:36:35.389Z,19.00
2022-08-17T02:39:08.708Z,20.10
2022-08-17T02:41:37.128Z,19.80
2022-08-17T02:44:06.192Z,21.90
2022-08-17T02:46:34.194Z,20.10
2022-08-17T02:49:01.894Z,20.20
2022-08-17T02:51:29.609Z,21.00
2022-08-17T02:54:38.988Z,20.50
2022-08-17T02:56:45.099Z,21.50
2022-08-17T02:59:12.726Z,21.60
2022-08-17T03:01:40.497Z,20.90
2022-08-17T03:04:08.303Z,22.50
2022-08-17T03:06:36.082Z,21.70
2022-08-17T03:09:04.200Z,22.10
2022-08-17T03:11:31.783Z,23.00
2022-08-17T03:13:59.413Z,22.50
2022-08-17T03:16:27.055Z,24.40
2022-08-17T03:18:55.120Z,23.60
2022-08-17T03:21:22.817Z,24.30
2022-08-17T03:23:54.303Z,24.70
2022-08-17T03:26:22.285Z,27.00
2022-08-17T03:28:49.914Z,24.90
2022-08-17T03:31:18.392Z,25.50
2022-08-17T03:33:46.085Z,26.30
2022-08-17T03:36:13.833Z,24.90
2022-08-17T03:38:41.616Z,25.60
2022-08-17T03:41:09.521Z,27.80
2022-08-17T03:43:37.198Z,25.10
2022-08-17T03:46:29.009Z,25.90
2022-08-17T03:49:23.460Z,24.90
2022-08-17T03:52:10.216Z,26.40
2022-08-17T03:54:56.628Z,25.50
2022-08-17T03:57:24.866Z,25.80
2022-08-17T03:59:53.705Z,28.50
2022-08-17T04:02:24.448Z,26.00
2022-08-17T04:04:52.504Z,27.10
2022-08-17T04:07:22.385Z,26.20
2022-08-17T04:09:50.058Z,26.30
2022-08-17T04:12:19.528Z,28.50
2022-08-17T04:14:52.677Z,29.20
2022-08-17T04:17:25.415Z,31.00
2022-08-17T04:19:54.326Z,34.40
2022-08-17T04:22:32.572Z,30.20
2022-08-17T04:25:08.607Z,31.40
2022-08-17T04:27:36.502Z,29.20
2022-08-17T04:30:07.338Z,29.50
2022-08-17T04:33:07.332Z,27.70
2022-08-17T04:35:44.776Z,28.80
2022-08-17T04:38:21.219Z,28.70
2022-08-17T04:41:07.479Z,26.60
2022-08-17T04:43:36.385Z,27.70
2022-08-17T04:46:09.929Z,27.10
2022-08-17T04:48:43.009Z,30.30
2022-08-17T04:51:14.160Z,31.80
2022-08-17T04:53:44.672Z,31.90
2022-08-17T04:56:18.940Z,31.50
2022-08-17T04:58:49.903Z,33.60
2022-08-17T05:01:24.065Z,33.40
2022-08-17T05:03:54.065Z,33.70
2022-08-17T05:06:22.650Z,30.90
2022-08-17T05:08:50.339Z,33.30
2022-08-17T05:11:18.256Z,37.20
2022-08-17T05:13:46.178Z,38.10
2022-08-17T05:16:13.869Z,42.70
2022-08-17T05:18:41.552Z,41.70
2022-08-17T05:21:09.246Z,43.10
2022-08-17T05:23:42.494Z,42.10
2022-08-17T05:26:26.941Z,42.80
2022-08-17T05:28:59.513Z,43.10
2022-08-17T05:31:29.593Z,43.70
2022-08-17T05:33:57.732Z,43.00
2022-08-17T05:36:42.368Z,44.20
2022-08-17T05:39:16.398Z,41.70
2022-08-17T05:41:48.312Z,42.50
2022-08-17T05:44:17.005Z,43.50
2022-08-17T05:46:49.202Z,42.10
2022-08-17T05:49:19.966Z,42.80
2022-08-17T05:51:59.560Z,41.40
2022-08-17T05:54:35.981Z,43.80
2022-08-17T05:57:16.981Z,43.70
2022-08-17T06:00:07.536Z,43.60
2022-08-17T06:03:03.856Z,41.40
2022-08-17T06:05:59.107Z,40.80
2022-08-17T06:08:42.494Z,37.60
2022-08-17T06:11:20.634Z,33.80
2022-08-17T06:13:59.795Z,32.40
2022-08-17T06:16:36.715Z,33.60
2022-08-17T06:19:19.611Z,27.50
2022-08-17T06:21:50.265Z,28.30
2022-08-17T06:24:23.971Z,25.00
2022-08-17T06:26:52.548Z,23.90
2022-08-17T06:29:52.552Z,24.10
2022-08-17T06:32:20.414Z,23.60
2022-08-17T06:34:48.155Z,23.20
2022-08-17T06:37:38.090Z,22.40
2022-08-17T06:40:38.724Z,22.80
2022-08-17T06:43:12.768Z,22.10
2022-08-17T06:45:50.832Z,22.00
2022-08-17T06:48:26.112Z,21.30
2022-08-17T06:51:25.992Z,21.80
2022-08-17T06:54:08.527Z,21.30
2022-08-17T06:56:53.394Z,21.50
2022-08-17T06:59:54.367Z,22.20
2022-08-17T07:03:01.571Z,23.30
2022-08-17T07:05:59.571Z,21.00
2022-08-17T07:08:51.571Z,23.60
2022-08-17T07:11:30.541Z,21.50
2022-08-17T07:14:07.169Z,22.50
2022-08-17T07:16:41.294Z,20.20
2022-08-17T07:19:10.997Z,22.00
2022-08-17T07:22:04.910Z,21.50
2022-08-17T07:25:00.222Z,19.40
2022-08-17T07:27:37.274Z,20.10
2022-08-17T07:30:11.099Z,17.90
2022-08-17T07:32:45.567Z,19.40
2022-08-17T07:35:15.676Z,20.80
2022-08-17T07:37:54.125Z,18.60
2022-08-17T07:40:29.003Z,20.20
2022-08-17T07:43:13.069Z,19.20
2022-08-17T07:46:30.949Z,20.30
2022-08-17T07:49:23.633Z,20.60
2022-08-17T07:51:51.232Z,20.80
2022-08-17T07:54:22.333Z,19.70
2022-08-17T07:56:56.162Z,20.00
2022-08-17T07:59:28.671Z,21.50
2022-08-17T08:02:17.075Z,21.30
2022-08-17T08:05:13.046Z,21.00
2022-08-17T08:07:52.246Z,19.70
2022-08-17T08:10:42.567Z,18.60
2022-08-17T08:13:25.072Z,18.40
2022-08-17T08:15:55.800Z,19.40
2022-08-17T08:18:38.556Z,19.30
2022-08-17T08:21:46.409Z,20.40
2022-08-17T08:24:32.465Z,20.40
2022-08-17T08:27:34.496Z,20.40
2022-08-17T08:30:21.325Z,23.20
2022-08-17T08:33:10.762Z,21.30
2022-08-17T08:35:53.612Z,18.90
2022-08-17T08:38:42.666Z,19.00
2022-08-17T08:41:19.456Z,18.40
2022-08-17T08:44:06.534Z,20.50
2022-08-17T08:47:03.034Z,20.60
2022-08-17T08:50:03.439Z,19.00
2022-08-17T08:52:56.981Z,18.60
2022-08-17T08:55:46.516Z,17.30
2022-08-17T08:58:43.810Z,17.20
2022-08-17T09:01:41.642Z,17.00
2022-08-17T09:04:25.525Z,17.90
2022-08-17T09:07:06.994Z,18.50
2022-08-17T09:09:50.398Z,18.20
2022-08-17T09:12:30.030Z,18.30
2022-08-17T09:15:03.747Z,18.30
2022-08-17T09:17:47.539Z,19.80
2022-08-17T09:20:27.481Z,17.40
2022-08-17T09:23:03.991Z,19.30
2022-08-17T09:25:33.286Z,19.60
2022-08-17T09:28:07.693Z,21.80
2022-08-17T09:30:50.136Z,19.60
2022-08-17T09:33:23.145Z,18.70
2022-08-17T09:35:56.306Z,19.80
2022-08-17T09:38:34.946Z,21.00
2022-08-17T09:41:26.243Z,19.90
2022-08-17T09:44:01.045Z,20.90
2022-08-17T09:46:33.747Z,20.40
2022-08-17T09:49:42.772Z,20.20
2022-08-17T09:52:20.371Z,19.70
2022-08-17T09:54:48.781Z,20.50
2022-08-17T09:57:32.192Z,21.50
2022-08-17T10:00:18.954Z,18.60
2022-08-17T10:02:53.550Z,19.40
2022-08-17T10:05:56.630Z,21.20
2022-08-17T10:08:51.953Z,18.90
2022-08-17T10:11:45.673Z,18.80
2022-08-17T10:14:37.929Z,19.50
2022-08-17T10:17:30.053Z,19.30
2022-08-17T10:20:05.019Z,17.90
2022-08-17T10:23:16.479Z,19.00
2022-08-17T10:26:13.634Z,17.80
2022-08-17T10:28:44.296Z,17.80
2022-08-17T10:34:36.147Z,18.80
2022-08-17T10:37:32.717Z,19.20
2022-08-17T10:40:15.960Z,19.20
2022-08-17T10:42:50.514Z,17.70
2022-08-17T10:45:23.492Z,17.40
2022-08-17T10:48:07.367Z,18.60
2022-08-17T10:50:50.432Z,17.10
2022-08-17T10:53:33.646Z,19.30
2022-08-17T10:56:13.702Z,17.50
2022-08-17T10:59:01.103Z,15.50
2022-08-17T11:01:34.549Z,16.30
2022-08-17T11:04:25.874Z,16.60
2022-08-17T11:07:25.972Z,14.80
2022-08-17T11:10:15.834Z,14.10
2022-08-17T11:13:02.210Z,15.00
2022-08-17T11:16:10.999Z,15.70
2022-08-17T11:19:10.006Z,14.40
2022-08-17T11:22:07.354Z,15.10
2022-08-17T11:24:47.831Z,16.70
2022-08-17T11:27:27.804Z,14.80
2022-08-17T11:30:01.877Z,14.80
2022-08-17T11:32:31.949Z,14.70
2022-08-17T11:35:19.084Z,16.00
2022-08-17T11:37:51.389Z,16.10
2022-08-17T11:40:46.504Z,16.50
2022-08-17T11:43:32.508Z,15.50
2022-08-17T11:46:51.752Z,16.50
2022-08-17T11:50:00.448Z,14.10
2022-08-17T11:52:48.875Z,14.10
2022-08-17T11:55:39.608Z,14.30
2022-08-17T11:58:29.289Z,15.40
2022-08-17T12:01:01.157Z,16.30
2022-08-17T12:03:31.900Z,16.20
2022-08-17T12:06:12.757Z,16.50
2022-08-17T12:08:45.541Z,15.50
2022-08-17T12:11:55.433Z,16.00
2022-08-17T12:15:05.995Z,16.10
2022-08-17T12:17:40.939Z,15.40
2022-08-17T12:20:27.915Z,16.10
2022-08-17T12:23:06.904Z,16.90
2022-08-17T12:25:52.155Z,15.90
2022-08-17T12:28:36.976Z,17.20
2022-08-17T12:31:15.905Z,17.50
2022-08-17T12:33:46.157Z,17.00
2022-08-17T12:36:16.125Z,16.90
2022-08-17T12:39:14.214Z,16.20
2022-08-17T12:41:47.280Z,16.20
2022-08-17T12:44:21.139Z,18.20
2022-08-17T12:46:50.642Z,18.90
2022-08-17T12:49:30.906Z,17.60
2022-08-17T12:52:25.351Z,18.30
2022-08-17T12:55:01.911Z,17.80
2022-08-17T12:57:42.817Z,17.70
2022-08-17T13:00:17.958Z,18.50
2022-08-17T13:02:49.183Z,19.00
2022-08-17T13:05:24.284Z,17.30
2022-08-17T13:07:53.531Z,17.00
2022-08-17T13:10:32.429Z,18.90
2022-08-17T13:13:07.506Z,19.60
2022-08-17T13:15:44.423Z,20.30
2022-08-17T13:18:58.534Z,18.50
2022-08-17T13:21:30.771Z,19.60
2022-08-17T13:24:08.076Z,18.70
2022-08-17T13:26:41.911Z,19.40
2022-08-17T13:29:25.284Z,20.50
2022-08-17T13:32:15.918Z,20.80
2022-08-17T13:35:12.993Z,18.90
2022-08-17T13:37:43.261Z,18.90
2022-08-17T13:40:11.172Z,19.30
2022-08-17T13:42:53.956Z,19.90
2022-08-17T13:45:35.563Z,19.30
2022-08-17T13:48:08.768Z,19.60
2022-08-17T13:50:42.727Z,20.30
2022-08-17T13:53:28.032Z,20.70
2022-08-17T13:55:59.670Z,20.40
2022-08-17T13:58:54.345Z,19.80
2022-08-17T14:01:29.470Z,21.00
2022-08-17T14:03:59.333Z,20.40
2022-08-17T14:06:52.539Z,21.40
2022-08-17T14:09:23.296Z,22.00
2022-08-17T14:11:51.601Z,19.90
2022-08-17T14:14:19.351Z,20.10
2022-08-17T14:16:46.948Z,19.70
2022-08-17T14:19:14.897Z,19.30
2022-08-17T14:21:45.696Z,20.40
2022-08-17T14:24:26.760Z,20.90
2022-08-17T14:26:55.451Z,19.30
2022-08-17T14:29:25.618Z,19.30
2022-08-17T14:31:54.882Z,20.40
2022-08-17T14:34:24.060Z,19.90
2022-08-17T14:36:53.007Z,19.10
2022-08-17T14:39:20.920Z,20.70
2022-08-17T14:41:49.433Z,20.70
2022-08-17T14:44:17.237Z,20.30
2022-08-17T14:46:45.301Z,20.60
2022-08-17T14:49:13.092Z,20.20
2022-08-17T14:51:44.718Z,19.20
2022-08-17T14:54:33.013Z,20.90
2022-08-17T14:57:23.153Z,22.60
2022-08-17T14:59:52.298Z,20.70
2022-08-17T15:02:29.631Z,20.60
2022-08-17T15:05:00.378Z,21.40
2022-08-17T15:07:30.665Z,21.90
2022-08-17T15:10:01.409Z,21.10
2022-08-17T15:12:34.605Z,21.20
2022-08-17T15:15:04.859Z,22.30
2022-08-17T15:17:43.841Z,22.30
2022-08-17T15:20:20.691Z,18.90
2022-08-17T15:22:56.019Z,21.40
2022-08-17T15:25:26.233Z,19.10
2022-08-17T15:27:55.526Z,20.30
2022-08-17T15:30:23.822Z,19.50
2022-08-17T15:32:55.174Z,20.90
2022-08-17T15:35:27.204Z,20.40
2022-08-17T15:38:09.826Z,19.40
2022-08-17T15:40:46.279Z,20.30
2022-08-17T15:43:26.658Z,20.20
2022-08-17T15:46:00.572Z,19.90
2022-08-17T15:48:41.440Z,20.50
2022-08-17T15:51:14.290Z,20.10
2022-08-17T15:53:54.162Z,20.30
2022-08-17T15:56:22.050Z,20.30
2022-08-17T15:58:49.945Z,18.60
2022-08-17T16:02:24.770Z,20.40
2022-08-17T16:04:30.452Z,19.00
2022-08-17T16:06:58.015Z,19.10
2022-08-17T16:09:25.685Z,19.80
2022-08-17T16:11:55.294Z,18.80
2022-08-17T16:14:30.247Z,21.00
2022-08-17T16:17:03.117Z,19.20
2022-08-17T16:19:33.225Z,19.30
2022-08-17T16:22:01.641Z,19.90
2022-08-17T16:24:29.690Z,19.70
2022-08-17T16:26:57.764Z,19.60
2022-08-17T16:29:25.462Z,19.40
2022-08-17T16:31:53.459Z,19.20
2022-08-17T16:34:21.648Z,19.10
2022-08-17T16:36:54.722Z,19.50
2022-08-17T16:39:26.071Z,19.20
2022-08-17T16:41:57.540Z,19.60
2022-08-17T16:44:27.742Z,19.50
2022-08-17T16:46:56.050Z,19.00
2022-08-17T16:49:32.446Z,18.90
2022-08-17T16:52:06.706Z,19.50
2022-08-17T16:54:43.907Z,18.30
2022-08-17T16:57:13.371Z,18.00
2022-08-17T16:59:47.825Z,18.60
2022-08-17T17:02:27.911Z,19.00
2022-08-17T17:05:33.342Z,21.40
2022-08-17T17:08:03.358Z,19.60
2022-08-17T17:10:43.741Z,19.10
2022-08-17T17:13:37.789Z,20.30
2022-08-17T17:16:20.804Z,19.10
2022-08-17T17:19:15.413Z,19.60
2022-08-17T17:21:53.206Z,19.00
2022-08-17T17:24:37.172Z,20.50
2022-08-17T17:27:13.838Z,19.90
2022-08-17T17:30:38.202Z,21.20
2022-08-17T17:33:22.556Z,18.90
2022-08-17T17:36:08.621Z,20.60
2022-08-17T17:38:49.121Z,19.40
2022-08-17T17:41:26.111Z,19.70
2022-08-17T17:44:03.273Z,20.90
2022-08-17T17:46:37.937Z,21.80
2022-08-17T17:49:06.206Z,27.10
2022-08-17T17:52:11.046Z,25.80
2022-08-17T17:55:03.047Z,22.20
2022-08-17T17:58:11.760Z,21.80
2022-08-17T18:00:53.145Z,23.70
2022-08-17T18:03:40.070Z,24.50
2022-08-17T18:06:26.770Z,24.70
2022-08-17T18:09:08.755Z,24.80
2022-08-17T18:11:59.002Z,23.10
2022-08-17T18:14:56.053Z,23.40
2022-08-17T18:17:23.698Z,24.20
2022-08-17T18:19:53.754Z,24.40
2022-08-17T18:22:22.438Z,25.20
2022-08-17T18:24:57.243Z,23.70
2022-08-17T18:27:37.875Z,26.20
2022-08-17T18:30:14.753Z,32.30
2022-08-17T18:32:46.384Z,35.20
2022-08-17T18:35:14.341Z,34.70
2022-08-17T18:37:49.576Z,32.60
2022-08-17T18:40:17.354Z,31.40
2022-08-17T18:43:00.325Z,27.40
2022-08-17T18:45:47.364Z,26.40
2022-08-17T18:48:21.782Z,24.90
2022-08-17T18:50:53.548Z,27.10
2022-08-17T18:53:41.777Z,34.60
2022-08-17T18:56:26.941Z,29.90
2022-08-17T18:59:19.204Z,27.60
2022-08-17T19:02:28.247Z,26.70
2022-08-17T19:05:06.628Z,27.90
2022-08-17T19:07:39.240Z,29.20
2022-08-17T19:10:19.213Z,27.10
2022-08-17T19:13:00.451Z,26.80
2022-08-17T19:15:36.091Z,28.50
2022-08-17T19:18:15.265Z,29.00
2022-08-17T19:20:50.763Z,27.50
2022-08-17T19:23:38.185Z,29.20
2022-08-17T19:26:51.110Z,28.70
2022-08-17T19:29:09.894Z,27.70
2022-08-17T19:31:37.494Z,27.60
2022-08-17T19:34:05.328Z,30.00
2022-08-17T19:36:43.428Z,28.70
2022-08-17T19:39:37.943Z,30.10
2022-08-17T19:42:34.023Z,29.80
2022-08-17T19:45:08.223Z,31.40
2022-08-17T19:48:04.987Z,30.20
2022-08-17T19:51:02.937Z,31.90
2022-08-17T19:54:04.373Z,33.30
2022-08-17T19:57:02.128Z,33.60
2022-08-17T19:59:52.268Z,31.20
2022-08-17T20:02:28.833Z,31.00
2022-08-17T20:05:00.203Z,32.80
2022-08-17T20:07:54.417Z,34.30
2022-08-17T20:10:26.550Z,31.70
2022-08-17T20:12:57.622Z,32.00
2022-08-17T20:15:29.767Z,32.40
2022-08-17T20:17:59.303Z,31.40
2022-08-17T20:20:46.871Z,32.70
2022-08-17T20:23:37.743Z,32.10
2022-08-17T20:26:35.462Z,33.40
2022-08-17T20:29:12.046Z,33.40
2022-08-17T20:32:05.460Z,33.60
2022-08-17T20:34:37.853Z,32.00
2022-08-17T20:37:15.241Z,34.20
2022-08-17T20:39:49.097Z,31.70
2022-08-17T20:42:19.719Z,32.30
2022-08-17T20:44:50.968Z,34.20
2022-08-17T20:47:27.146Z,34.00
2022-08-17T20:50:01.561Z,34.50
2022-08-17T20:53:09.974Z,33.20
2022-08-17T20:55:51.350Z,34.00
2022-08-17T20:58:30.661Z,31.80
2022-08-17T21:01:00.086Z,35.20
2022-08-17T21:03:27.705Z,33.50
2022-08-17T21:06:17.929Z,36.20
2022-08-17T21:08:59.423Z,37.30
2022-08-17T21:12:00.015Z,38.10
2022-08-17T21:14:23.801Z,40.90
2022-08-17T21:17:06.889Z,39.80
2022-08-17T21:20:10.479Z,41.50
2022-08-17T21:22:51.746Z,37.20
2022-08-17T21:25:48.197Z,37.30
2022-08-17T21:28:33.866Z,38.40
2022-08-17T21:31:09.184Z,33.90
2022-08-17T21:33:39.173Z,34.70
2022-08-17T21:36:10.070Z,37.00
2022-08-17T21:38:52.368Z,36.70
2022-08-17T21:41:34.273Z,35.90
2022-08-17T21:44:12.298Z,34.70
2022-08-17T21:46:46.695Z,33.20
2022-08-17T21:49:17.853Z,35.10
2022-08-17T21:51:50.354Z,34.40
2022-08-17T21:54:32.016Z,35.90
2022-08-17T21:57:02.390Z,34.30
2022-08-17T21:59:34.703Z,34.80
2022-08-17T22:02:05.789Z,35.00
2022-08-17T22:04:41.929Z,33.00
2022-08-17T22:07:13.301Z,33.90
2022-08-17T22:09:51.156Z,33.10
2022-08-17T22:12:21.614Z,33.60
2022-08-17T22:14:55.395Z,35.30
2022-08-17T22:17:37.250Z,35.30
2022-08-17T22:20:15.469Z,37.30
2022-08-17T22:23:05.020Z,39.90
2022-08-17T22:25:36.271Z,40.20
2022-08-17T22:28:12.095Z,40.60
2022-08-17T22:31:01.124Z,42.90
2022-08-17T22:33:40.469Z,40.70
2022-08-17T22:36:30.391Z,36.50
2022-08-17T22:39:26.254Z,35.90
2022-08-17T22:41:59.189Z,38.10
2022-08-17T22:44:32.051Z,36.10
2022-08-17T22:47:16.546Z,36.70
2022-08-17T22:49:52.989Z,36.60
2022-08-17T22:52:32.579Z,33.40
2022-08-17T22:55:30.615Z,36.30
2022-08-17T22:58:17.684Z,35.00
2022-08-17T23:00:48.480Z,33.80
2022-08-17T23:03:22.801Z,34.60
2022-08-17T23:06:09.774Z,35.90
2022-08-17T23:08:59.709Z,33.90
2022-08-17T23:11:36.843Z,32.30
2022-08-17T23:14:19.971Z,31.70
2022-08-17T23:16:50.302Z,33.30
2022-08-17T23:19:21.343Z,32.90
2022-08-17T23:21:51.094Z,30.30
2022-08-17T23:24:23.607Z,32.40
2022-08-17T23:26:51.587Z,31.70
2022-08-17T23:29:22.817Z,30.30
2022-08-17T23:31:51.654Z,30.90
2022-08-17T23:34:19.519Z,31.00
2022-08-17T23:36:52.492Z,29.70
2022-08-17T23:39:27.443Z,32.10
2022-08-17T23:41:58.219Z,31.90
2022-08-17T23:44:28.457Z,30.00
2022-08-17T23:46:56.600Z,30.50
2022-08-17T23:49:25.369Z,28.70
2022-08-17T23:51:56.707Z,30.70
2022-08-17T23:54:29.855Z,29.50
2022-08-17T23:56:57.786Z,31.40
2022-08-17T23:59:27.549Z,29.40
